createdAt,value
2019-01-14T00:00:25.531Z,0
2019-01-14T00:01:34.448Z,0
2019-01-14T00:02:43.883Z,0
2019-01-14T00:03:53.055Z,0
2019-01-14T00:05:02.440Z,0
2019-01-14T00:06:16.947Z,0
2019-01-14T00:07:26.127Z,0
2019-01-14T00:08:35.314Z,0
2019-01-14T00:09:44.863Z,0
2019-01-14T00:10:54.292Z,0
2019-01-14T00:12:03.262Z,0
2019-01-14T00:13:12.462Z,0
2019-01-14T00:14:21.405Z,0
2019-01-14T00:15:30.831Z,0
2019-01-14T00:16:39.792Z,0
2019-01-14T00:17:48.971Z,0
2019-01-14T00:18:58.193Z,0
2019-01-14T00:20:07.661Z,0
2019-01-14T00:21:16.837Z,0
2019-01-14T00:22:26.023Z,0
2019-01-14T00:23:35.210Z,0
2019-01-14T00:24:44.130Z,0
2019-01-14T00:25:53.553Z,0
2019-01-14T00:27:02.738Z,0
2019-01-14T00:28:12.204Z,0
2019-01-14T00:29:21.144Z,0
2019-01-14T00:30:30.601Z,0
2019-01-14T00:31:39.787Z,0
2019-01-14T00:32:48.958Z,0
2019-01-14T00:33:58.660Z,0
2019-01-14T00:35:07.851Z,0
2019-01-14T00:36:24.026Z,0
2019-01-14T00:37:33.213Z,0
2019-01-14T00:38:42.907Z,0
2019-01-14T00:39:52.106Z,0
2019-01-14T00:41:01.048Z,0
2019-01-14T00:42:09.982Z,0
2019-01-14T00:43:19.415Z,0
2019-01-14T00:44:28.580Z,0
2019-01-14T00:45:38.255Z,0
2019-01-14T00:46:47.204Z,0
2019-01-14T00:47:56.878Z,0
2019-01-14T00:49:06.294Z,0
2019-01-14T00:50:15.231Z,0
2019-01-14T00:51:24.703Z,0
2019-01-14T00:52:34.127Z,0
2019-01-14T00:53:43.614Z,0
2019-01-14T00:54:52.794Z,0
2019-01-14T00:56:02.017Z,0
2019-01-14T00:57:11.204Z,0
2019-01-14T00:58:20.432Z,0
2019-01-14T00:59:30.138Z,0
2019-01-14T01:00:39.568Z,0
2019-01-14T01:01:49.023Z,0
2019-01-14T01:02:58.193Z,0
2019-01-14T01:04:06.882Z,0
2019-01-14T01:05:16.325Z,0
2019-01-14T01:06:31.440Z,0
2019-01-14T01:07:40.672Z,0
2019-01-14T01:08:50.091Z,0
2019-01-14T01:09:59.007Z,0
2019-01-14T01:11:07.938Z,0
2019-01-14T01:12:16.894Z,0
2019-01-14T01:13:26.090Z,0
2019-01-14T01:14:35.282Z,0
2019-01-14T01:15:44.488Z,0
2019-01-14T01:16:53.676Z,0
2019-01-14T01:18:02.855Z,0
2019-01-14T01:19:12.526Z,0
2019-01-14T01:20:21.960Z,0
2019-01-14T01:21:31.403Z,0
2019-01-14T01:22:40.580Z,0
2019-01-14T01:23:49.765Z,0
2019-01-14T01:24:58.966Z,0
2019-01-14T01:26:08.157Z,0
2019-01-14T01:27:17.596Z,0
2019-01-14T01:28:27.271Z,0
2019-01-14T01:29:37.043Z,0
2019-01-14T01:30:45.979Z,0
2019-01-14T01:31:54.905Z,0
2019-01-14T01:33:04.331Z,0
2019-01-14T01:34:13.548Z,0
2019-01-14T01:35:22.707Z,0
2019-01-14T01:36:38.484Z,0
2019-01-14T01:37:47.942Z,0
2019-01-14T01:38:57.140Z,0
2019-01-14T01:40:06.588Z,0
2019-01-14T01:41:15.526Z,0
2019-01-14T01:42:24.458Z,0
2019-01-14T01:43:33.663Z,0
2019-01-14T01:44:42.835Z,0
2019-01-14T01:45:52.004Z,0
2019-01-14T01:47:00.940Z,0
2019-01-14T01:48:10.127Z,0
2019-01-14T01:49:19.556Z,0
2019-01-14T01:50:28.996Z,0
2019-01-14T01:51:38.180Z,0
2019-01-14T01:52:47.609Z,0
2019-01-14T01:53:57.021Z,0
2019-01-14T01:55:06.442Z,0
2019-01-14T01:56:15.360Z,0
2019-01-14T01:57:24.546Z,0
2019-01-14T01:58:33.993Z,0
2019-01-14T01:59:43.426Z,0
2019-01-14T02:00:52.855Z,0
2019-01-14T02:02:01.545Z,0
2019-01-14T02:03:10.722Z,0
2019-01-14T02:04:20.178Z,0
2019-01-14T02:05:29.605Z,0
2019-01-14T02:06:45.991Z,0
2019-01-14T02:07:55.920Z,0
2019-01-14T02:09:05.596Z,0
2019-01-14T02:10:14.523Z,0
2019-01-14T02:11:23.485Z,0
2019-01-14T02:12:32.664Z,0
2019-01-14T02:13:42.095Z,0
2019-01-14T02:14:50.836Z,0
2019-01-14T02:16:00.526Z,0
2019-01-14T02:17:09.942Z,0
2019-01-14T02:18:19.387Z,0
2019-01-14T02:19:28.327Z,0
2019-01-14T02:20:38.025Z,0
2019-01-14T02:21:46.956Z,0
2019-01-14T02:22:56.650Z,0
2019-01-14T02:24:05.830Z,0
2019-01-14T02:25:14.767Z,0
2019-01-14T02:26:23.692Z,0
2019-01-14T02:27:32.871Z,0
2019-01-14T02:28:42.057Z,0
2019-01-14T02:29:51.328Z,0
2019-01-14T02:31:01.037Z,0
2019-01-14T02:32:10.465Z,0
2019-01-14T02:33:19.904Z,0
2019-01-14T02:34:29.332Z,0
2019-01-14T02:35:39.002Z,0
2019-01-14T02:36:55.404Z,0
2019-01-14T02:38:04.340Z,0
2019-01-14T02:39:13.764Z,0
2019-01-14T02:40:23.472Z,0
2019-01-14T02:41:32.901Z,0
2019-01-14T02:42:42.580Z,0
2019-01-14T02:43:52.498Z,0
2019-01-14T02:45:01.927Z,0
2019-01-14T02:46:11.866Z,0
2019-01-14T02:47:21.030Z,0
2019-01-14T02:48:30.779Z,0
2019-01-14T02:49:39.474Z,0
2019-01-14T02:50:49.206Z,0
2019-01-14T02:51:58.419Z,0
2019-01-14T02:53:08.144Z,0
2019-01-14T02:54:17.123Z,0
2019-01-14T02:55:26.847Z,0
2019-01-14T02:56:36.036Z,0
2019-01-14T02:57:45.466Z,0
2019-01-14T02:58:54.936Z,0
2019-01-14T03:00:04.132Z,0
2019-01-14T03:01:13.589Z,0
2019-01-14T03:02:23.262Z,0
2019-01-14T03:03:32.450Z,0
2019-01-14T03:04:41.893Z,0
2019-01-14T03:05:51.332Z,0
2019-01-14T03:07:04.638Z,0
2019-01-14T03:08:13.838Z,0
2019-01-14T03:09:23.269Z,0
2019-01-14T03:10:32.459Z,0
2019-01-14T03:11:41.937Z,0
2019-01-14T03:12:51.380Z,0
2019-01-14T03:14:00.591Z,0
2019-01-14T03:15:10.038Z,0
2019-01-14T03:16:18.990Z,0
2019-01-14T03:17:28.419Z,0
2019-01-14T03:18:37.353Z,0
2019-01-14T03:19:46.788Z,0
2019-01-14T03:20:56.216Z,0
2019-01-14T03:22:05.647Z,0
2019-01-14T03:23:15.105Z,0
2019-01-14T03:24:24.805Z,0
2019-01-14T03:25:34.779Z,0
2019-01-14T03:26:43.966Z,0
2019-01-14T03:27:53.417Z,0
2019-01-14T03:29:03.093Z,0
2019-01-14T03:30:13.122Z,0
2019-01-14T03:31:23.013Z,0
2019-01-14T03:32:32.509Z,0
2019-01-14T03:33:42.234Z,0
2019-01-14T03:34:51.176Z,0
2019-01-14T03:36:00.372Z,0
2019-01-14T03:37:12.399Z,0
2019-01-14T03:38:21.850Z,0
2019-01-14T03:39:31.544Z,0
2019-01-14T03:40:41.245Z,0
2019-01-14T03:41:50.453Z,0
2019-01-14T03:42:59.633Z,0
2019-01-14T03:44:08.807Z,0
2019-01-14T03:45:17.751Z,0
2019-01-14T03:46:26.685Z,0
2019-01-14T03:47:35.874Z,0
2019-01-14T03:48:45.562Z,0
2019-01-14T03:49:54.483Z,0
2019-01-14T03:51:03.428Z,0
2019-01-14T03:52:12.882Z,0
2019-01-14T03:53:22.075Z,0
2019-01-14T03:54:31.522Z,0
2019-01-14T03:55:41.226Z,0
2019-01-14T03:56:50.676Z,0
2019-01-14T03:57:59.860Z,0
2019-01-14T03:59:09.317Z,0
2019-01-14T04:00:18.757Z,0
2019-01-14T04:01:27.697Z,0
2019-01-14T04:02:37.131Z,0
2019-01-14T04:03:46.313Z,0
2019-01-14T04:04:55.742Z,0
2019-01-14T04:06:05.416Z,0
2019-01-14T04:07:20.918Z,0
2019-01-14T04:08:30.607Z,0
2019-01-14T04:09:39.813Z,0
2019-01-14T04:10:49.510Z,0
2019-01-14T04:11:59.186Z,0
2019-01-14T04:13:08.379Z,0
2019-01-14T04:14:18.324Z,0
2019-01-14T04:15:27.527Z,0
2019-01-14T04:16:37.234Z,0
2019-01-14T04:17:46.427Z,0
2019-01-14T04:18:55.869Z,0
2019-01-14T04:20:05.555Z,0
2019-01-14T04:21:15.486Z,0
2019-01-14T04:22:25.419Z,0
2019-01-14T04:23:35.118Z,0
2019-01-14T04:24:44.545Z,0
2019-01-14T04:25:54.242Z,0
2019-01-14T04:27:03.687Z,0
2019-01-14T04:28:13.380Z,0
2019-01-14T04:29:23.094Z,0
2019-01-14T04:30:32.037Z,0
2019-01-14T04:31:41.259Z,0
2019-01-14T04:32:51.217Z,0
2019-01-14T04:33:59.910Z,0
2019-01-14T04:35:09.382Z,0
2019-01-14T04:36:18.818Z,0
2019-01-14T04:37:28.519Z,0
2019-01-14T04:38:37.949Z,0
2019-01-14T04:39:47.390Z,0
2019-01-14T04:40:56.829Z,0
2019-01-14T04:42:06.268Z,0
2019-01-14T04:43:15.457Z,0
2019-01-14T04:44:24.895Z,0
2019-01-14T04:45:34.644Z,0
2019-01-14T04:46:44.098Z,0
2019-01-14T04:47:52.785Z,0
2019-01-14T04:49:01.960Z,0
2019-01-14T04:50:12.006Z,0
2019-01-14T04:51:20.953Z,0
2019-01-14T04:52:30.400Z,0
2019-01-14T04:53:39.613Z,0
2019-01-14T04:54:49.046Z,0
2019-01-14T04:55:58.516Z,0
2019-01-14T04:57:08.178Z,0
2019-01-14T04:58:17.866Z,0
2019-01-14T04:59:27.315Z,0
2019-01-14T05:00:36.867Z,0
2019-01-14T05:01:46.295Z,0
2019-01-14T05:02:55.723Z,0
2019-01-14T05:04:05.396Z,0
2019-01-14T05:05:14.942Z,0
2019-01-14T05:06:23.901Z,0
2019-01-14T05:07:36.805Z,0
2019-01-14T05:08:46.474Z,0
2019-01-14T05:09:55.658Z,0
2019-01-14T05:11:05.099Z,0
2019-01-14T05:12:14.596Z,0
2019-01-14T05:13:23.817Z,0
2019-01-14T05:14:33.236Z,0
2019-01-14T05:15:44.336Z,0
2019-01-14T05:16:53.547Z,0
2019-01-14T05:18:03.020Z,0
2019-01-14T05:19:12.496Z,0
2019-01-14T05:20:21.917Z,0
2019-01-14T05:21:31.601Z,0
2019-01-14T05:22:41.023Z,0
2019-01-14T05:23:50.297Z,0
2019-01-14T05:24:59.507Z,0
2019-01-14T05:26:09.214Z,0
2019-01-14T05:27:18.916Z,0
2019-01-14T05:28:28.096Z,0
2019-01-14T05:29:37.303Z,0
2019-01-14T05:30:47.246Z,0
2019-01-14T05:31:56.937Z,0
2019-01-14T05:33:05.885Z,0
2019-01-14T05:34:15.375Z,0
2019-01-14T05:35:25.073Z,0
2019-01-14T05:36:34.507Z,0
2019-01-14T05:37:44.805Z,0
2019-01-14T05:38:54.253Z,0
2019-01-14T05:40:03.942Z,0
2019-01-14T05:41:13.368Z,0
2019-01-14T05:42:22.803Z,0
2019-01-14T05:43:32.110Z,0
2019-01-14T05:44:41.795Z,0
2019-01-14T05:45:51.230Z,0
2019-01-14T05:47:00.180Z,0
2019-01-14T05:48:10.127Z,0
2019-01-14T05:49:19.058Z,0
2019-01-14T05:50:28.737Z,0
2019-01-14T05:51:37.921Z,0
2019-01-14T05:52:47.605Z,0
2019-01-14T05:53:57.483Z,0
2019-01-14T05:55:06.913Z,0
2019-01-14T05:56:16.851Z,0
2019-01-14T05:57:25.791Z,0
2019-01-14T05:58:34.719Z,0
2019-01-14T05:59:43.894Z,0
2019-01-14T06:00:53.082Z,0
2019-01-14T06:02:02.499Z,0
2019-01-14T06:03:12.182Z,0
2019-01-14T06:04:21.124Z,0
2019-01-14T06:05:30.065Z,0
2019-01-14T06:06:39.502Z,0
2019-01-14T06:07:51.812Z,0
2019-01-14T06:09:00.981Z,0
2019-01-14T06:10:09.674Z,0
2019-01-14T06:11:18.847Z,0
2019-01-14T06:12:28.556Z,0
2019-01-14T06:13:38.248Z,0
2019-01-14T06:14:47.729Z,0
2019-01-14T06:15:57.680Z,0
2019-01-14T06:17:06.880Z,0
2019-01-14T06:18:16.569Z,0
2019-01-14T06:19:25.762Z,0
2019-01-14T06:20:34.927Z,0
2019-01-14T06:21:44.981Z,0
2019-01-14T06:22:53.647Z,0
2019-01-14T06:24:02.842Z,0
2019-01-14T06:25:12.560Z,0
2019-01-14T06:26:21.483Z,0
2019-01-14T06:27:31.180Z,0
2019-01-14T06:28:40.111Z,0
2019-01-14T06:29:49.559Z,0
2019-01-14T06:30:58.490Z,0
2019-01-14T06:32:08.179Z,0
2019-01-14T06:33:17.642Z,0
2019-01-14T06:34:27.320Z,0
2019-01-14T06:35:36.749Z,0
2019-01-14T06:36:46.182Z,0
2019-01-14T06:37:59.337Z,0
2019-01-14T06:39:08.273Z,0
2019-01-14T06:40:17.696Z,0
2019-01-14T06:41:26.636Z,0
2019-01-14T06:42:35.816Z,0
2019-01-14T06:43:45.250Z,0
2019-01-14T06:44:54.215Z,0
2019-01-14T06:46:03.641Z,0
2019-01-14T06:47:13.073Z,0
2019-01-14T06:48:22.251Z,0
2019-01-14T06:49:31.678Z,0
2019-01-14T06:50:41.101Z,0
2019-01-14T06:51:50.042Z,0
2019-01-14T06:52:59.236Z,0
2019-01-14T06:54:08.176Z,0
2019-01-14T06:55:17.864Z,0
2019-01-14T06:56:27.878Z,0
2019-01-14T06:57:37.838Z,0
2019-01-14T06:58:47.574Z,0
2019-01-14T06:59:57.013Z,0
2019-01-14T07:01:06.746Z,0
2019-01-14T07:02:16.177Z,0
2019-01-14T07:03:25.626Z,0
2019-01-14T07:04:35.076Z,0
2019-01-14T07:05:44.768Z,0
2019-01-14T07:06:53.957Z,0
2019-01-14T07:08:06.825Z,0
2019-01-14T07:09:16.025Z,0
2019-01-14T07:10:25.968Z,0
2019-01-14T07:11:34.889Z,0
2019-01-14T07:12:44.581Z,0
2019-01-14T07:13:54.263Z,0
2019-01-14T07:15:03.432Z,0
2019-01-14T07:16:12.859Z,0
2019-01-14T07:17:22.292Z,0
2019-01-14T07:18:31.985Z,0
2019-01-14T07:19:40.691Z,0
2019-01-14T07:20:50.228Z,0
2019-01-14T07:21:59.981Z,0
2019-01-14T07:23:10.755Z,0
2019-01-14T07:24:20.713Z,0
2019-01-14T07:25:29.884Z,0
2019-01-14T07:26:39.102Z,0
2019-01-14T07:27:48.304Z,0
2019-01-14T07:28:57.489Z,0
2019-01-14T07:30:06.932Z,0
2019-01-14T07:31:16.649Z,0
2019-01-14T07:32:25.833Z,0
2019-01-14T07:33:35.530Z,0
2019-01-14T07:34:44.973Z,0
2019-01-14T07:35:54.445Z,0
2019-01-14T07:37:03.385Z,0
2019-01-14T07:38:13.759Z,0
2019-01-14T07:39:23.192Z,0
2019-01-14T07:40:32.870Z,0
2019-01-14T07:41:42.326Z,0
2019-01-14T07:42:51.520Z,0
2019-01-14T07:44:01.211Z,0
2019-01-14T07:45:10.399Z,0
2019-01-14T07:46:19.134Z,0
2019-01-14T07:47:28.315Z,0
2019-01-14T07:48:37.243Z,0
2019-01-14T07:49:46.710Z,0
2019-01-14T07:50:55.882Z,0
2019-01-14T07:52:04.810Z,0
2019-01-14T07:53:14.250Z,0
2019-01-14T07:54:23.687Z,0
2019-01-14T07:55:33.117Z,0
2019-01-14T07:56:42.317Z,0
2019-01-14T07:57:51.526Z,0
2019-01-14T07:59:00.967Z,0
2019-01-14T08:00:10.414Z,0
2019-01-14T08:01:19.850Z,0
2019-01-14T08:02:29.271Z,0
2019-01-14T08:03:38.763Z,0
2019-01-14T08:04:48.440Z,0
2019-01-14T08:05:57.613Z,0
2019-01-14T08:07:06.538Z,0
2019-01-14T08:08:21.036Z,0
2019-01-14T08:09:29.966Z,0
2019-01-14T08:10:38.898Z,0
2019-01-14T08:11:48.118Z,0
2019-01-14T08:12:57.813Z,0
2019-01-14T08:14:07.971Z,0
2019-01-14T08:15:17.185Z,0
2019-01-14T08:16:26.619Z,0
2019-01-14T08:17:35.787Z,0
2019-01-14T08:18:44.981Z,0
2019-01-14T08:19:54.672Z,0
2019-01-14T08:21:04.105Z,0
2019-01-14T08:22:12.804Z,0
2019-01-14T08:23:22.205Z,0
2019-01-14T08:24:31.141Z,0
2019-01-14T08:25:42.061Z,0
2019-01-14T08:26:51.767Z,0
2019-01-14T08:28:00.985Z,0
2019-01-14T08:29:09.686Z,0
2019-01-14T08:30:18.862Z,0
2019-01-14T08:31:27.570Z,0
2019-01-14T08:32:37.254Z,0
2019-01-14T08:33:46.198Z,0
2019-01-14T08:34:55.877Z,0
2019-01-14T08:36:04.820Z,0
2019-01-14T08:37:15.447Z,0
2019-01-14T08:38:28.304Z,0
2019-01-14T08:39:37.502Z,0
2019-01-14T08:40:46.704Z,0
2019-01-14T08:41:56.144Z,0
2019-01-14T08:43:05.098Z,0
2019-01-14T08:44:14.037Z,0
2019-01-14T08:45:23.483Z,0
2019-01-14T08:46:32.670Z,0
2019-01-14T08:47:42.129Z,0
2019-01-14T08:48:55.530Z,0
2019-01-14T08:50:05.244Z,4
2019-01-14T08:51:14.680Z,4
2019-01-14T08:52:24.350Z,0
2019-01-14T08:53:34.213Z,0
2019-01-14T08:54:43.476Z,0
2019-01-14T08:55:53.164Z,4
2019-01-14T08:57:02.096Z,0
2019-01-14T08:58:11.548Z,0
2019-01-14T08:59:21.489Z,0
2019-01-14T09:00:31.176Z,0
2019-01-14T09:01:40.400Z,0
2019-01-14T09:02:49.948Z,0
2019-01-14T09:03:59.189Z,0
2019-01-14T09:05:08.378Z,0
2019-01-14T09:06:18.319Z,4
2019-01-14T09:07:28.013Z,4
2019-01-14T09:08:37.456Z,4
2019-01-14T09:09:46.896Z,0
2019-01-14T09:10:56.092Z,0
2019-01-14T09:12:05.775Z,4
2019-01-14T09:13:14.964Z,4
2019-01-14T09:14:24.419Z,0
2019-01-14T09:15:33.364Z,0
2019-01-14T09:16:42.800Z,4
2019-01-14T09:17:52.008Z,4
2019-01-14T09:19:01.496Z,0
2019-01-14T09:20:10.942Z,0
2019-01-14T09:21:20.397Z,4
2019-01-14T09:22:29.591Z,4
2019-01-14T09:23:39.033Z,0
2019-01-14T09:24:48.519Z,4
2019-01-14T09:26:00.502Z,4
2019-01-14T09:27:09.953Z,0
2019-01-14T09:28:19.136Z,0
2019-01-14T09:29:28.311Z,0
2019-01-14T09:30:37.735Z,4
2019-01-14T09:31:46.914Z,0
2019-01-14T09:32:56.156Z,0
2019-01-14T09:34:05.600Z,4
2019-01-14T09:35:14.807Z,4
2019-01-14T09:36:24.484Z,8
2019-01-14T09:37:34.170Z,4
2019-01-14T09:38:42.872Z,8
2019-01-14T09:39:52.322Z,8
2019-01-14T09:41:01.776Z,8
2019-01-14T09:42:10.982Z,12
2019-01-14T09:43:19.909Z,12
2019-01-14T09:44:29.362Z,8
2019-01-14T09:45:38.801Z,8
2019-01-14T09:46:48.238Z,8
2019-01-14T09:47:57.693Z,12
2019-01-14T09:49:07.128Z,8
2019-01-14T09:50:16.336Z,8
2019-01-14T09:51:25.779Z,8
2019-01-14T09:52:35.264Z,12
2019-01-14T09:53:44.450Z,8
2019-01-14T09:54:53.629Z,8
2019-01-14T09:56:02.811Z,8
2019-01-14T09:57:11.820Z,8
2019-01-14T09:58:21.248Z,8
2019-01-14T09:59:30.677Z,16
2019-01-14T10:00:39.918Z,16
2019-01-14T10:01:49.367Z,40
2019-01-14T10:03:02.565Z,24
2019-01-14T10:04:11.501Z,40
2019-01-14T10:05:20.729Z,40
2019-01-14T10:06:30.431Z,40
2019-01-14T10:07:39.620Z,44
2019-01-14T10:08:49.940Z,40
2019-01-14T10:09:59.466Z,44
2019-01-14T10:11:08.663Z,44
2019-01-14T10:12:18.103Z,44
2019-01-14T10:13:27.800Z,12
2019-01-14T10:14:36.494Z,12
2019-01-14T10:15:46.175Z,20
2019-01-14T10:16:55.346Z,36
2019-01-14T10:18:05.066Z,8
2019-01-14T10:19:14.783Z,48
2019-01-14T10:20:24.237Z,44
2019-01-14T10:21:33.773Z,12
2019-01-14T10:22:43.257Z,12
2019-01-14T10:23:52.695Z,52
2019-01-14T10:25:02.410Z,48
2019-01-14T10:26:11.851Z,16
2019-01-14T10:27:21.072Z,24
2019-01-14T10:28:30.242Z,40
2019-01-14T10:29:39.445Z,44
2019-01-14T10:30:48.873Z,28
2019-01-14T10:31:58.084Z,48
2019-01-14T10:33:07.522Z,20
2019-01-14T10:34:16.739Z,40
2019-01-14T10:35:26.175Z,20
2019-01-14T10:36:35.641Z,52
2019-01-14T10:37:44.843Z,52
2019-01-14T10:38:57.475Z,20
2019-01-14T10:40:06.183Z,16
2019-01-14T10:41:15.868Z,12
2019-01-14T10:42:24.786Z,8
2019-01-14T10:43:34.214Z,12
2019-01-14T10:44:43.416Z,12
2019-01-14T10:45:52.598Z,12
2019-01-14T10:47:01.845Z,16
2019-01-14T10:48:11.268Z,8
2019-01-14T10:49:20.697Z,12
2019-01-14T10:50:30.123Z,8
2019-01-14T10:51:39.063Z,8
2019-01-14T10:52:48.264Z,8
2019-01-14T10:53:57.965Z,8
2019-01-14T10:55:14.615Z,8
2019-01-14T10:56:24.058Z,12
2019-01-14T10:57:33.046Z,8
2019-01-14T10:58:42.531Z,8
2019-01-14T10:59:51.718Z,4
2019-01-14T11:01:01.133Z,4
2019-01-14T11:02:10.076Z,4
2019-01-14T11:03:18.769Z,8
2019-01-14T11:04:28.222Z,8
2019-01-14T11:05:37.217Z,8
2019-01-14T11:06:47.202Z,24
2019-01-14T11:07:56.157Z,12
2019-01-14T11:09:12.589Z,32
2019-01-14T11:10:21.925Z,36
2019-01-14T11:11:31.356Z,32
2019-01-14T11:12:40.802Z,16
2019-01-14T11:13:50.512Z,16
2019-01-14T11:15:02.832Z,16
2019-01-14T11:16:12.468Z,16
2019-01-14T11:17:21.905Z,16
2019-01-14T11:18:30.846Z,24
2019-01-14T11:19:40.293Z,12
2019-01-14T11:20:49.752Z,12
2019-01-14T11:21:58.966Z,12
2019-01-14T11:23:07.946Z,12
2019-01-14T11:24:16.913Z,12
2019-01-14T11:25:25.607Z,8
2019-01-14T11:26:34.557Z,4
2019-01-14T11:27:43.485Z,4
2019-01-14T11:28:52.945Z,4
2019-01-14T11:30:01.881Z,4
2019-01-14T11:31:10.566Z,4
2019-01-14T11:32:19.769Z,4
2019-01-14T11:33:29.462Z,0
2019-01-14T11:34:39.148Z,4
2019-01-14T11:35:48.325Z,4
2019-01-14T11:36:57.531Z,4
2019-01-14T11:38:07.229Z,4
2019-01-14T11:39:16.659Z,4
2019-01-14T11:40:25.381Z,8
2019-01-14T11:41:34.326Z,8
2019-01-14T11:42:43.503Z,8
2019-01-14T11:43:52.712Z,8
2019-01-14T11:45:01.638Z,8
2019-01-14T11:46:10.340Z,8
2019-01-14T11:47:20.027Z,8
2019-01-14T11:48:28.983Z,8
2019-01-14T11:49:37.949Z,12
2019-01-14T11:50:47.135Z,8
2019-01-14T11:51:56.070Z,12
2019-01-14T11:53:05.328Z,8
2019-01-14T11:54:14.274Z,8
2019-01-14T11:55:23.741Z,4
2019-01-14T11:56:32.690Z,8
2019-01-14T11:57:41.904Z,8
2019-01-14T11:58:50.831Z,8
2019-01-14T12:00:00.271Z,8
2019-01-14T12:01:09.721Z,8
2019-01-14T12:02:18.657Z,8
2019-01-14T12:03:28.093Z,12
2019-01-14T12:04:37.036Z,16
2019-01-14T12:05:46.761Z,20
2019-01-14T12:06:55.443Z,20
2019-01-14T12:08:04.635Z,24
2019-01-14T12:09:19.255Z,28
2019-01-14T12:10:28.456Z,24
2019-01-14T12:11:38.171Z,16
2019-01-14T12:12:46.861Z,16
2019-01-14T12:13:55.798Z,16
2019-01-14T12:15:05.265Z,16
2019-01-14T12:16:14.697Z,16
2019-01-14T12:17:24.150Z,12
2019-01-14T12:18:33.347Z,16
2019-01-14T12:19:43.066Z,20
2019-01-14T12:20:52.280Z,20
2019-01-14T12:22:01.728Z,20
2019-01-14T12:23:10.711Z,12
2019-01-14T12:24:19.662Z,12
2019-01-14T12:25:29.361Z,8
2019-01-14T12:26:38.571Z,12
2019-01-14T12:27:47.769Z,12
2019-01-14T12:28:57.230Z,12
2019-01-14T12:30:06.192Z,12
2019-01-14T12:31:15.453Z,12
2019-01-14T12:32:24.388Z,12
2019-01-14T12:33:33.829Z,16
2019-01-14T12:34:43.019Z,12
2019-01-14T12:35:52.511Z,20
2019-01-14T12:37:01.693Z,16
2019-01-14T12:38:10.896Z,24
2019-01-14T12:39:26.632Z,16
2019-01-14T12:40:36.085Z,32
2019-01-14T12:41:51.026Z,20
2019-01-14T12:43:00.832Z,28
2019-01-14T12:44:10.258Z,28
2019-01-14T12:45:19.936Z,28
2019-01-14T12:46:28.885Z,12
2019-01-14T12:47:38.085Z,24
2019-01-14T12:48:47.527Z,24
2019-01-14T12:49:57.237Z,28
2019-01-14T12:51:06.926Z,28
2019-01-14T12:52:16.847Z,28
2019-01-14T12:53:26.038Z,28
2019-01-14T12:54:35.488Z,28
2019-01-14T12:55:44.455Z,28
2019-01-14T12:56:53.402Z,4
2019-01-14T12:58:02.842Z,8
2019-01-14T12:59:12.276Z,8
2019-01-14T13:00:21.952Z,8
2019-01-14T13:01:31.135Z,28
2019-01-14T13:02:40.561Z,24
2019-01-14T13:03:49.764Z,24
2019-01-14T13:04:59.048Z,20
2019-01-14T13:06:08.240Z,16
2019-01-14T13:07:17.182Z,12
2019-01-14T13:08:26.630Z,16
2019-01-14T13:09:35.852Z,20
2019-01-14T13:10:45.707Z,16
2019-01-14T13:11:54.458Z,16
2019-01-14T13:13:03.657Z,12
2019-01-14T13:14:13.101Z,12
2019-01-14T13:15:22.593Z,8
2019-01-14T13:16:32.050Z,12
2019-01-14T13:17:41.263Z,12
2019-01-14T13:18:49.960Z,12
2019-01-14T13:19:59.150Z,12
2019-01-14T13:21:09.070Z,8
2019-01-14T13:22:18.513Z,8
2019-01-14T13:23:32.163Z,4
2019-01-14T13:24:41.308Z,8
2019-01-14T13:25:50.491Z,8
2019-01-14T13:26:59.935Z,8
2019-01-14T13:28:09.411Z,8
2019-01-14T13:29:22.915Z,8
2019-01-14T13:30:32.355Z,8
2019-01-14T13:31:41.297Z,8
2019-01-14T13:32:49.959Z,4
2019-01-14T13:33:59.143Z,4
2019-01-14T13:35:08.086Z,4
2019-01-14T13:36:17.269Z,4
2019-01-14T13:37:26.240Z,0
2019-01-14T13:38:35.440Z,0
2019-01-14T13:39:45.406Z,0
2019-01-14T13:41:00.767Z,0
2019-01-14T13:42:10.262Z,0
2019-01-14T13:43:19.689Z,0
2019-01-14T13:44:28.878Z,0
2019-01-14T13:45:38.340Z,0
2019-01-14T13:46:47.271Z,0
2019-01-14T13:47:56.739Z,0
2019-01-14T13:49:05.456Z,0
2019-01-14T13:50:14.724Z,0
2019-01-14T13:51:24.233Z,4
2019-01-14T13:52:32.997Z,0
2019-01-14T13:53:41.925Z,0
2019-01-14T13:54:51.145Z,0
2019-01-14T13:56:06.155Z,0
2019-01-14T13:57:15.142Z,4
2019-01-14T13:58:24.379Z,4
2019-01-14T13:59:34.095Z,4
2019-01-14T14:00:42.776Z,4
2019-01-14T14:01:52.753Z,4
2019-01-14T14:03:01.967Z,4
2019-01-14T14:04:10.658Z,4
2019-01-14T14:05:19.894Z,4
2019-01-14T14:06:29.108Z,4
2019-01-14T14:07:38.307Z,4
2019-01-14T14:08:47.293Z,4
2019-01-14T14:09:56.752Z,4
2019-01-14T14:11:06.446Z,8
2019-01-14T14:12:15.876Z,8
2019-01-14T14:13:25.571Z,8
2019-01-14T14:14:34.748Z,4
2019-01-14T14:15:43.947Z,4
2019-01-14T14:16:52.865Z,8
2019-01-14T14:18:03.904Z,4
2019-01-14T14:19:12.587Z,4
2019-01-14T14:20:21.781Z,4
2019-01-14T14:21:30.961Z,4
2019-01-14T14:22:39.648Z,4
2019-01-14T14:23:49.088Z,4
2019-01-14T14:24:58.527Z,4
2019-01-14T14:26:08.014Z,4
2019-01-14T14:27:17.717Z,4
2019-01-14T14:28:26.936Z,4
2019-01-14T14:29:36.685Z,4
2019-01-14T14:30:46.136Z,4
2019-01-14T14:31:55.092Z,4
2019-01-14T14:33:04.540Z,4
2019-01-14T14:34:13.983Z,4
2019-01-14T14:35:23.457Z,4
2019-01-14T14:36:32.899Z,4
2019-01-14T14:37:42.355Z,4
2019-01-14T14:38:51.036Z,4
2019-01-14T14:40:00.466Z,4
2019-01-14T14:41:09.658Z,4
2019-01-14T14:42:18.585Z,4
2019-01-14T14:43:28.289Z,4
2019-01-14T14:44:37.712Z,4
2019-01-14T14:45:46.899Z,4
2019-01-14T14:46:56.601Z,4
2019-01-14T14:48:06.071Z,4
2019-01-14T14:49:15.265Z,4
2019-01-14T14:50:24.210Z,4
2019-01-14T14:51:33.653Z,4
2019-01-14T14:52:42.841Z,4
2019-01-14T14:53:52.503Z,4
2019-01-14T14:55:01.437Z,4
2019-01-14T14:56:10.408Z,4
2019-01-14T14:57:19.837Z,4
2019-01-14T14:58:28.801Z,4
2019-01-14T14:59:38.044Z,4
2019-01-14T15:00:46.999Z,4
2019-01-14T15:01:56.426Z,0
2019-01-14T15:03:05.655Z,0
2019-01-14T15:04:15.105Z,0
2019-01-14T15:05:24.547Z,4
2019-01-14T15:06:33.236Z,4
2019-01-14T15:07:42.703Z,4
2019-01-14T15:08:52.402Z,4
2019-01-14T15:10:04.392Z,4
2019-01-14T15:11:14.327Z,4
2019-01-14T15:12:23.522Z,0
2019-01-14T15:13:32.716Z,0
2019-01-14T15:14:42.137Z,0
2019-01-14T15:15:51.833Z,0
2019-01-14T15:17:01.021Z,0
2019-01-14T15:18:10.286Z,0
2019-01-14T15:19:19.211Z,0
2019-01-14T15:20:28.414Z,0
2019-01-14T15:21:37.624Z,0
2019-01-14T15:22:47.352Z,0
2019-01-14T15:23:56.536Z,0
2019-01-14T15:25:06.032Z,0
2019-01-14T15:26:15.478Z,0
2019-01-14T15:27:24.712Z,0
2019-01-14T15:28:34.142Z,0
2019-01-14T15:29:43.600Z,0
2019-01-14T15:30:53.065Z,0
2019-01-14T15:32:02.800Z,0
2019-01-14T15:33:12.038Z,0
2019-01-14T15:34:21.735Z,0
2019-01-14T15:35:31.165Z,0
2019-01-14T15:36:40.583Z,0
2019-01-14T15:37:49.767Z,0
2019-01-14T15:38:59.195Z,0
2019-01-14T15:40:11.652Z,0
2019-01-14T15:41:21.120Z,0
2019-01-14T15:42:30.813Z,0
2019-01-14T15:43:40.493Z,0
2019-01-14T15:44:49.412Z,0
2019-01-14T15:45:58.358Z,0
2019-01-14T15:47:07.793Z,0
2019-01-14T15:48:17.222Z,0
2019-01-14T15:49:26.908Z,0
2019-01-14T15:50:36.127Z,0
2019-01-14T15:51:45.300Z,0
2019-01-14T15:52:53.975Z,0
2019-01-14T15:54:02.921Z,0
2019-01-14T15:55:12.626Z,0
2019-01-14T15:56:21.837Z,0
2019-01-14T15:57:31.018Z,0
2019-01-14T15:58:39.949Z,0
2019-01-14T15:59:48.898Z,0
2019-01-14T16:00:57.864Z,0
2019-01-14T16:02:07.295Z,0
2019-01-14T16:03:17.090Z,0
2019-01-14T16:04:26.276Z,0
2019-01-14T16:05:35.476Z,0
2019-01-14T16:06:44.668Z,0
2019-01-14T16:07:54.376Z,0
2019-01-14T16:09:03.320Z,0
2019-01-14T16:10:17.354Z,0
2019-01-14T16:11:26.351Z,0
2019-01-14T16:12:36.284Z,0
2019-01-14T16:13:45.210Z,0
2019-01-14T16:14:54.173Z,0
2019-01-14T16:16:03.901Z,0
2019-01-14T16:17:13.099Z,0
2019-01-14T16:18:22.553Z,0
2019-01-14T16:19:31.496Z,0
2019-01-14T16:20:40.691Z,0
2019-01-14T16:21:49.989Z,0
2019-01-14T16:22:59.210Z,0
2019-01-14T16:24:08.668Z,0
2019-01-14T16:25:18.171Z,0
2019-01-14T16:26:27.111Z,0
2019-01-14T16:27:36.532Z,0
2019-01-14T16:28:45.484Z,0
2019-01-14T16:29:54.950Z,0
2019-01-14T16:31:04.422Z,0
2019-01-14T16:32:14.735Z,0
2019-01-14T16:33:23.982Z,0
2019-01-14T16:34:32.908Z,0
2019-01-14T16:35:41.877Z,0
2019-01-14T16:36:51.563Z,0
2019-01-14T16:38:00.960Z,0
2019-01-14T16:39:10.436Z,0
2019-01-14T16:40:25.253Z,0
2019-01-14T16:41:34.959Z,0
2019-01-14T16:42:43.640Z,0
2019-01-14T16:43:53.319Z,0
2019-01-14T16:45:02.398Z,0
2019-01-14T16:46:11.600Z,0
2019-01-14T16:47:20.528Z,0
2019-01-14T16:48:29.726Z,0
2019-01-14T16:49:38.938Z,0
2019-01-14T16:50:48.119Z,0
2019-01-14T16:51:57.325Z,0
2019-01-14T16:53:07.201Z,0
2019-01-14T16:54:16.638Z,0
2019-01-14T16:55:25.599Z,0
2019-01-14T16:56:35.053Z,0
2019-01-14T16:57:44.790Z,0
2019-01-14T16:58:53.494Z,0
2019-01-14T17:00:02.456Z,0
2019-01-14T17:01:11.434Z,0
2019-01-14T17:02:20.627Z,0